Time;durP1;ratioP1;P1;durP2;ratioP2;P2;SDS_P1;SDS_P2;PMS_P1;PMS_P2;Temp;Humidity;BMP_temperature;BMP_pressure;BME280_temperature;BME280_humidity;BME280_pressure;Samples;Min_cycle;Max_cycle;Signal;HPM_P1;HPM_P2
2023/04/08 00:01:38;;;;;;;;;;;;;;;7.69;61.23;100653.34;5293858;32;32930;-71
2023/04/08 00:04:41;;;;;;;;;;;;;;;6.74;65.29;100660.56;5319188;32;44647;-74
2023/04/08 00:07:43;;;;;;;;;;;;;;;5.97;68.11;100654.97;5313674;32;34020;-71
2023/04/08 00:10:45;;;;;;;;;;;;;;;6.39;66.31;100655.16;5337454;32;34610;-71
2023/04/08 00:13:47;;;;;;;;;;;;;;;7.21;63.58;100648.31;5325845;32;34235;-71
2023/04/08 00:16:49;;;;;;;;;;;;;;;7.49;62.91;100645.97;5336522;32;35006;-71
2023/04/08 00:19:51;;;;;;;;;;;;;;;7.86;60.58;100652.97;5308688;32;34409;-73
2023/04/08 00:22:53;;;;;;;;;;;;;;;7.53;61.03;100655.44;5317020;32;34166;-74
2023/04/08 00:25:55;;;;;;;;;;;;;;;6.30;67.38;100661.38;5314153;32;34135;-69
2023/04/08 00:28:57;;;;;;;;;;;;;;;6.34;68.58;100654.34;5318261;32;34108;-74
2023/04/08 00:31:59;;;;;;;;;;;;;;;6.43;68.27;100657.66;5316775;32;34367;-70
2023/04/08 00:35:01;;;;;;;;;;;;;;;6.70;67.31;100658.06;5295107;32;33842;-73
2023/04/08 00:38:06;;;;;;;;;;;;;;;6.26;69.45;100666.69;5317428;32;33431;-74
2023/04/08 00:41:08;;;;;;;;;;;;;;;6.61;67.01;100658.22;5317028;32;33820;-75
2023/04/08 00:44:10;;;;;;;;;;;;;;;5.90;71.56;100662.00;5307884;32;43044;-73
2023/04/08 00:47:13;;;;;;;;;;;;;;;5.63;73.08;100663.28;5307983;32;33961;-73
2023/04/08 00:50:15;;;;;;;;;;;;;;;5.49;74.75;100665.22;5296172;32;33247;-70
2023/04/08 00:53:17;;;;;;;;;;;;;;;5.78;73.17;100663.94;5316504;32;34445;-74
2023/04/08 00:56:20;;;;;;;;;;;;;;;5.88;72.37;100666.38;5305779;32;34326;-70
2023/04/08 00:59:22;;;;;;;;;;;;;;;6.11;72.64;100662.56;5288355;32;35189;-74
2023/04/08 01:02:26;;;;;;;;;;;;;;;6.27;72.51;100665.81;5302878;32;35351;-73
2023/04/08 01:05:55;;;;;;;;;;;;;;;5.82;73.87;100668.22;5293113;32;33589;-74
2023/04/08 01:08:58;;;;;;;;;;;;;;;6.12;73.31;100661.69;5320417;32;33920;-73
2023/04/08 01:12:01;;;;;;;;;;;;;;;5.78;74.23;100662.19;5310370;32;33520;-70
2023/04/08 01:15:07;;;;;;;;;;;;;;;5.75;75.20;100666.59;5337283;32;33525;-70
2023/04/08 01:18:10;;;;;;;;;;;;;;;6.22;72.67;100653.69;5317954;32;35280;-70
2023/04/08 01:21:12;;;;;;;;;;;;;;;5.72;75.36;100672.69;5295252;32;44659;-73
2023/04/08 01:24:19;;;;;;;;;;;;;;;6.12;74.78;100649.50;5319821;32;35269;-71
2023/04/08 01:27:21;;;;;;;;;;;;;;;6.80;71.62;100664.81;5297902;32;34983;-71
2023/04/08 01:30:24;;;;;;;;;;;;;;;5.75;73.24;100664.00;5305361;32;33743;-71
2023/04/08 01:33:26;;;;;;;;;;;;;;;5.89;74.86;100664.63;5300910;32;33759;-70
2023/04/08 01:36:28;;;;;;;;;;;;;;;6.38;73.73;100663.87;5324052;32;33970;-76
2023/04/08 01:39:30;;;;;;;;;;;;;;;6.30;72.93;100656.16;5328186;32;33574;-71
2023/04/08 01:42:32;;;;;;;;;;;;;;;6.11;75.20;100666.03;5325161;32;34106;-71
2023/04/08 01:45:34;;;;;;;;;;;;;;;6.59;71.09;100657.41;5324585;32;33171;-74
2023/04/08 01:48:36;;;;;;;;;;;;;;;6.09;72.53;100669.56;5325065;32;33693;-74
2023/04/08 01:51:38;;;;;;;;;;;;;;;6.06;73.06;100665.28;5314213;32;34547;-74
2023/04/08 01:54:40;;;;;;;;;;;;;;;5.70;73.88;100658.84;5303919;32;33149;-70
2023/04/08 01:57:43;;;;;;;;;;;;;;;6.02;71.13;100654.91;5329337;32;44219;-70
2023/04/08 02:00:45;;;;;;;;;;;;;;;6.05;73.79;100657.44;5321298;32;34623;-70
2023/04/08 02:03:47;;;;;;;;;;;;;;;6.05;72.93;100657.44;5325095;32;33817;-75
2023/04/08 02:06:49;;;;;;;;;;;;;;;6.53;71.91;100657.50;5307575;32;34224;-73
2023/04/08 02:09:50;;;;;;;;;;;;;;;6.36;71.44;100650.81;5323613;32;33961;-74
2023/04/08 02:12:54;;;;;;;;;;;;;;;6.08;72.84;100657.41;5309505;32;34470;-76
2023/04/08 02:15:56;;;;;;;;;;;;;;;5.89;75.05;100655.06;5296870;32;34827;-73
2023/04/08 02:18:59;;;;;;;;;;;;;;;5.75;75.74;100661.38;5300438;32;34006;-70
2023/04/08 02:22:05;;;;;;;;;;;;;;;5.45;78.35;100660.91;5310416;32;34884;-74
2023/04/08 02:25:07;;;;;;;;;;;;;;;5.59;77.61;100658.13;5310474;32;33033;-73
2023/04/08 02:28:10;;;;;;;;;;;;;;;5.24;77.84;100654.25;5328077;32;33446;-69
2023/04/08 02:31:15;;;;;;;;;;;;;;;5.44;78.75;100660.06;5283503;32;44819;-71
2023/04/08 02:34:17;;;;;;;;;;;;;;;5.31;77.37;100655.91;5336671;32;34649;-75
2023/04/08 02:37:19;;;;;;;;;;;;;;;5.74;74.53;100663.13;5305281;32;34533;-71
2023/04/08 02:40:25;;;;;;;;;;;;;;;5.23;77.26;100656.91;5309952;32;33524;-71
2023/04/08 02:43:31;;;;;;;;;;;;;;;5.45;77.15;100655.72;5310133;32;34170;-73
2023/04/08 02:46:33;;;;;;;;;;;;;;;5.71;75.26;100663.16;5308134;32;33831;-75
2023/04/08 02:49:35;;;;;;;;;;;;;;;5.93;74.27;100656.78;5323685;32;32787;-69
2023/04/08 02:52:36;;;;;;;;;;;;;;;6.26;72.06;100654.50;5320765;32;34220;-73
2023/04/08 02:55:39;;;;;;;;;;;;;;;6.40;70.76;100643.81;5320618;32;33003;-70
2023/04/08 02:58:40;;;;;;;;;;;;;;;6.99;68.00;100647.88;5326723;32;44039;-73
2023/04/08 03:01:42;;;;;;;;;;;;;;;5.96;73.37;100654.09;5317897;32;33683;-70
2023/04/08 03:04:44;;;;;;;;;;;;;;;5.59;75.91;100653.75;5318829;32;33362;-70
2023/04/08 03:07:46;;;;;;;;;;;;;;;5.42;76.81;100658.38;5299734;32;33671;-70
2023/04/08 03:10:48;;;;;;;;;;;;;;;5.32;77.99;100657.63;5321684;32;33813;-71
2023/04/08 03:13:50;;;;;;;;;;;;;;;5.27;78.74;100659.41;5314208;32;34177;-73
2023/04/08 03:16:52;;;;;;;;;;;;;;;5.28;79.52;100663.78;5330674;32;33514;-72
2023/04/08 03:19:54;;;;;;;;;;;;;;;5.02;80.42;100658.84;5311629;32;33811;-70
2023/04/08 03:22:56;;;;;;;;;;;;;;;5.45;79.44;100663.53;5307320;32;33455;-74
2023/04/08 03:25:58;;;;;;;;;;;;;;;5.23;78.12;100672.53;5322975;32;33655;-73
2023/04/08 03:29:00;;;;;;;;;;;;;;;5.87;78.03;100666.41;5325777;32;34108;-70
2023/04/08 03:32:03;;;;;;;;;;;;;;;5.79;76.50;100671.72;5303307;32;34205;-73
2023/04/08 03:35:05;;;;;;;;;;;;;;;6.26;74.62;100672.78;5310501;32;33577;-70
2023/04/08 03:38:07;;;;;;;;;;;;;;;5.90;75.70;100671.56;5312232;32;35007;-74
2023/04/08 03:41:09;;;;;;;;;;;;;;;5.42;76.75;100672.25;5298921;32;34150;-71
2023/04/08 03:44:11;;;;;;;;;;;;;;;5.58;77.60;100674.66;5295337;32;45906;-70
2023/04/08 03:47:13;;;;;;;;;;;;;;;5.74;77.28;100675.31;5322328;32;33143;-70
2023/04/08 03:50:15;;;;;;;;;;;;;;;6.06;76.39;100670.50;5294304;32;33722;-74
2023/04/08 03:53:17;;;;;;;;;;;;;;;5.66;77.57;100684.06;5338009;32;33069;-70
2023/04/08 03:56:19;;;;;;;;;;;;;;;5.93;75.51;100685.47;5311674;32;33609;-73
2023/04/08 03:59:21;;;;;;;;;;;;;;;5.14;78.82;100694.31;5323395;32;33650;-72
2023/04/08 04:02:23;;;;;;;;;;;;;;;6.21;76.27;100693.72;5322803;32;35676;-72
2023/04/08 04:05:25;;;;;;;;;;;;;;;5.86;76.26;100693.34;5312780;32;34100;-73
2023/04/08 04:08:27;;;;;;;;;;;;;;;5.39;78.46;100693.12;5333275;32;31688;-74
2023/04/08 04:11:29;;;;;;;;;;;;;;;5.78;76.01;100703.06;5304701;32;33007;-70
2023/04/08 04:14:31;;;;;;;;;;;;;;;5.56;76.69;100698.16;5324088;32;33725;-70
2023/04/08 04:17:33;;;;;;;;;;;;;;;5.99;75.31;100700.19;5294484;32;34061;-73
2023/04/08 04:20:39;;;;;;;;;;;;;;;5.11;79.79;100704.81;5319143;32;34145;-70
2023/04/08 04:23:40;;;;;;;;;;;;;;;5.16;78.19;100706.47;5311582;32;44623;-71
2023/04/08 04:26:42;;;;;;;;;;;;;;;4.71;80.32;100709.59;5320733;32;33438;-74
2023/04/08 04:29:44;;;;;;;;;;;;;;;5.09;79.60;100709.19;5321858;32;34201;-71
2023/04/08 04:32:46;;;;;;;;;;;;;;;4.44;81.88;100695.06;5298997;32;33568;-71
2023/04/08 04:35:48;;;;;;;;;;;;;;;5.18;80.43;100708.19;5321146;32;33132;-70
2023/04/08 04:38:50;;;;;;;;;;;;;;;5.47;77.20;100707.81;5326073;32;33091;-74
2023/04/08 04:41:53;;;;;;;;;;;;;;;4.99;79.56;100713.62;5322282;32;34171;-74
2023/04/08 04:44:55;;;;;;;;;;;;;;;4.98;79.55;100705.81;5313058;32;33510;-70
2023/04/08 04:47:57;;;;;;;;;;;;;;;5.60;78.52;100719.81;5300142;32;34132;-74
2023/04/08 04:51:00;;;;;;;;;;;;;;;5.72;76.88;100719.66;5324165;32;33770;-74
2023/04/08 04:54:02;;;;;;;;;;;;;;;5.57;76.08;100712.91;5324986;32;34512;-74
2023/04/08 04:57:03;;;;;;;;;;;;;;;5.76;75.32;100716.13;5330137;32;33551;-73
2023/04/08 05:00:07;;;;;;;;;;;;;;;5.55;76.80;100719.03;5320003;32;33165;-71
2023/04/08 05:03:09;;;;;;;;;;;;;;;6.10;75.07;100720.88;5327551;32;33677;-73
2023/04/08 05:06:11;;;;;;;;;;;;;;;5.06;77.39;100723.09;5318457;32;44832;-70
2023/04/08 05:09:13;;;;;;;;;;;;;;;6.05;75.13;100720.06;5307354;32;32977;-73
2023/04/08 05:12:15;;;;;;;;;;;;;;;6.39;72.06;100718.66;5317334;32;33600;-70
2023/04/08 05:15:17;;;;;;;;;;;;;;;5.47;76.69;100726.06;5294656;32;33809;-73
2023/04/08 05:18:19;;;;;;;;;;;;;;;5.71;77.42;100725.75;5321954;32;33716;-70
2023/04/08 05:21:21;;;;;;;;;;;;;;;5.30;78.01;100732.37;5307878;32;33272;-70
2023/04/08 05:24:23;;;;;;;;;;;;;;;5.10;78.92;100731.75;5326912;32;33613;-73
2023/04/08 05:27:25;;;;;;;;;;;;;;;5.36;78.73;100734.91;5326208;32;34193;-74
2023/04/08 05:30:27;;;;;;;;;;;;;;;5.50;78.29;100737.34;5302877;32;33574;-71
2023/04/08 05:33:29;;;;;;;;;;;;;;;5.66;78.08;100744.06;5323511;32;34868;-70
2023/04/08 05:36:31;;;;;;;;;;;;;;;5.13;79.72;100744.72;5312943;32;33395;-70
2023/04/08 05:39:33;;;;;;;;;;;;;;;5.66;76.97;100753.62;5328110;32;33019;-73
2023/04/08 05:42:35;;;;;;;;;;;;;;;5.81;77.44;100749.97;5314797;32;34208;-71
2023/04/08 05:45:37;;;;;;;;;;;;;;;5.77;78.07;100743.91;5314030;32;33623;-71
2023/04/08 05:48:39;;;;;;;;;;;;;;;6.30;75.42;100754.47;5321857;32;35435;-71
2023/04/08 05:51:41;;;;;;;;;;;;;;;6.36;73.94;100750.03;5319306;32;46976;-74
2023/04/08 05:54:43;;;;;;;;;;;;;;;5.82;76.47;100752.56;5328134;32;33889;-70
2023/04/08 05:57:45;;;;;;;;;;;;;;;5.89;75.13;100748.97;5326618;32;33825;-70
2023/04/08 06:00:47;;;;;;;;;;;;;;;6.06;75.18;100756.59;5336536;32;34486;-73
2023/04/08 06:03:49;;;;;;;;;;;;;;;6.75;72.94;100747.62;5321738;32;34142;-70
2023/04/08 06:06:51;;;;;;;;;;;;;;;6.59;72.99;100752.28;5316103;32;34672;-70
2023/04/08 06:09:53;;;;;;;;;;;;;;;5.94;73.37;100751.56;5308493;32;919827;-74
2023/04/08 06:12:55;;;;;;;;;;;;;;;7.04;69.86;100758.44;5324409;32;33130;-73
2023/04/08 06:15:57;;;;;;;;;;;;;;;7.28;68.04;100758.87;5326705;32;34169;-73
2023/04/08 06:18:59;;;;;;;;;;;;;;;5.60;73.67;100777.19;5332373;32;34406;-73
2023/04/08 06:22:01;;;;;;;;;;;;;;;6.32;71.06;100764.03;5332449;32;35801;-74
2023/04/08 06:25:03;;;;;;;;;;;;;;;6.36;69.96;100770.91;5312461;32;33867;-70
2023/04/08 06:28:05;;;;;;;;;;;;;;;5.74;73.08;100779.63;5314502;32;34136;-70
2023/04/08 06:31:07;;;;;;;;;;;;;;;6.23;74.02;100779.81;5303703;32;34180;-73
2023/04/08 06:34:09;;;;;;;;;;;;;;;6.45;70.91;100786.47;5329239;32;34185;-70
2023/04/08 06:37:11;;;;;;;;;;;;;;;6.05;72.06;100786.16;5321964;32;44597;-71
2023/04/08 06:40:13;;;;;;;;;;;;;;;6.34;70.83;100774.44;5314424;32;33706;-75
2023/04/08 06:43:15;;;;;;;;;;;;;;;6.54;70.41;100788.03;5326414;32;33403;-70
2023/04/08 06:46:17;;;;;;;;;;;;;;;6.26;71.88;100785.00;5309788;32;33833;-72
2023/04/08 06:49:19;;;;;;;;;;;;;;;7.38;67.39;100781.31;5298656;32;34466;-75
2023/04/08 06:52:21;;;;;;;;;;;;;;;6.69;69.44;100789.53;5308910;32;34421;-75
2023/04/08 06:55:23;;;;;;;;;;;;;;;5.68;72.98;100794.47;5308725;32;34474;-72
2023/04/08 06:58:25;;;;;;;;;;;;;;;5.93;74.28;100797.66;5322786;32;34334;-73
2023/04/08 07:01:27;;;;;;;;;;;;;;;7.09;67.91;100794.09;5309469;32;33668;-73
2023/04/08 07:04:29;;;;;;;;;;;;;;;6.90;69.80;100789.19;5320490;32;33114;-72
2023/04/08 07:07:31;;;;;;;;;;;;;;;6.16;71.33;100806.91;5306225;32;33635;-74
2023/04/08 07:10:33;;;;;;;;;;;;;;;6.73;70.56;100796.44;5311566;32;33715;-71
2023/04/08 07:13:35;;;;;;;;;;;;;;;6.86;68.50;100792.72;5322223;32;33735;-71
2023/04/08 07:16:37;;;;;;;;;;;;;;;5.82;73.19;100801.25;5306470;32;33568;-70
2023/04/08 07:19:40;;;;;;;;;;;;;;;6.65;70.76;100803.56;5322567;32;33204;-70
2023/04/08 07:22:41;;;;;;;;;;;;;;;6.19;74.02;100805.12;5304211;32;44608;-70
2023/04/08 07:25:43;;;;;;;;;;;;;;;6.39;71.28;100812.66;5309660;32;33415;-71
2023/04/08 07:28:45;;;;;;;;;;;;;;;6.76;69.28;100810.34;5309333;32;33060;-75
2023/04/08 07:31:47;;;;;;;;;;;;;;;6.46;69.99;100811.66;5286848;32;33641;-70
2023/04/08 07:34:50;;;;;;;;;;;;;;;6.63;71.50;100821.84;5326179;32;34891;-70
2023/04/08 07:37:52;;;;;;;;;;;;;;;7.19;67.61;100816.53;5321908;32;34364;-70
2023/04/08 07:40:54;;;;;;;;;;;;;;;5.83;73.27;100822.09;5321785;32;33002;-75
2023/04/08 07:43:56;;;;;;;;;;;;;;;6.32;73.25;100826.69;5314382;32;33547;-72
2023/04/08 07:46:58;;;;;;;;;;;;;;;6.29;72.91;100829.34;5319288;32;34174;-70
2023/04/08 07:50:00;;;;;;;;;;;;;;;6.02;74.19;100842.78;5308797;32;33216;-70
2023/04/08 07:53:02;;;;;;;;;;;;;;;7.01;71.90;100846.47;5320774;32;34415;-75
2023/04/08 07:56:11;;;;;;;;;;;;;;;6.10;73.12;100851.34;5335723;32;32785;-71
2023/04/08 07:59:13;;;;;;;;;;;;;;;7.02;70.80;100846.47;5302878;32;44813;-71
2023/04/08 08:02:15;;;;;;;;;;;;;;;6.22;71.95;100853.81;5321374;32;34258;-75
2023/04/08 08:05:17;;;;;;;;;;;;;;;6.78;70.95;100844.25;5306810;32;32992;-71
2023/04/08 08:08:19;;;;;;;;;;;;;;;6.83;70.76;100850.28;5320116;32;33249;-74
2023/04/08 08:11:21;;;;;;;;;;;;;;;6.29;71.29;100850.22;5297393;32;33624;-71
2023/04/08 08:14:25;;;;;;;;;;;;;;;5.69;73.18;100850.09;5306182;32;33109;-70
2023/04/08 08:17:29;;;;;;;;;;;;;;;6.20;71.41;100851.22;5321848;32;33451;-71
2023/04/08 08:20:31;;;;;;;;;;;;;;;6.20;72.65;100851.22;5309905;32;33091;-70
2023/04/08 08:23:33;;;;;;;;;;;;;;;6.83;71.46;100854.63;5333084;32;32919;-75
2023/04/08 08:26:38;;;;;;;;;;;;;;;6.77;70.40;100855.59;5312369;32;33475;-75
2023/04/08 08:29:40;;;;;;;;;;;;;;;6.86;72.44;100859.81;5326672;32;44659;-72
2023/04/08 08:32:42;;;;;;;;;;;;;;;6.09;73.64;100860.06;5311104;32;33583;-70
2023/04/08 08:35:44;;;;;;;;;;;;;;;7.18;71.12;100854.88;5294744;32;34250;-70
2023/04/08 08:38:46;;;;;;;;;;;;;;;6.00;75.67;100870.63;5308629;32;32864;-70
2023/04/08 08:41:48;;;;;;;;;;;;;;;6.22;75.09;100866.84;5307726;32;33710;-70
2023/04/08 08:44:50;;;;;;;;;;;;;;;7.37;70.48;100865.88;5308495;32;33589;-74
2023/04/08 08:47:52;;;;;;;;;;;;;;;6.38;73.19;100873.59;5309230;32;33236;-71
2023/04/08 08:50:55;;;;;;;;;;;;;;;7.58;67.83;100856.75;5319736;32;33679;-71
2023/04/08 08:53:59;;;;;;;;;;;;;;;7.55;67.97;100868.16;5312374;32;34164;-71
2023/04/08 08:57:01;;;;;;;;;;;;;;;7.39;67.71;100874.56;5294819;32;33312;-74
2023/04/08 09:00:03;;;;;;;;;;;;;;;6.89;70.49;100878.03;5322053;32;33779;-71
2023/04/08 09:03:21;;;;;;;;;;;;;;;6.74;71.46;100881.75;5313710;32;33645;-74
2023/04/08 09:06:25;;;;;;;;;;;;;;;6.32;74.13;100889.34;5307937;32;33467;-75
2023/04/08 09:09:27;;;;;;;;;;;;;;;6.37;73.19;100887.50;5323650;32;33258;-72
2023/04/08 09:12:30;;;;;;;;;;;;;;;6.69;73.42;100897.50;5321804;32;34525;-74
2023/04/08 09:15:32;;;;;;;;;;;;;;;6.91;70.27;100900.66;5340558;32;33661;-75
2023/04/08 09:18:34;;;;;;;;;;;;;;;7.77;67.18;100894.75;5294935;32;34149;-71
2023/04/08 09:21:37;;;;;;;;;;;;;;;6.93;71.58;100898.88;5308756;32;34195;-71
2023/04/08 09:24:39;;;;;;;;;;;;;;;6.49;71.65;100897.78;5325896;32;32933;-74
2023/04/08 09:27:41;;;;;;;;;;;;;;;5.94;72.86;100906.34;5333735;32;44726;-71
2023/04/08 09:30:43;;;;;;;;;;;;;;;6.68;71.02;100910.59;5307411;32;33012;-71
2023/04/08 09:33:47;;;;;;;;;;;;;;;7.09;69.33;100914.31;5304630;32;34643;-70
2023/04/08 09:36:49;;;;;;;;;;;;;;;7.05;68.77;100922.19;5335044;32;35647;-71
2023/04/08 09:39:52;;;;;;;;;;;;;;;7.32;67.81;100917.41;5304681;32;33984;-75
2023/04/08 09:42:55;;;;;;;;;;;;;;;7.90;64.75;100908.47;5321138;32;33914;-70
2023/04/08 09:45:57;;;;;;;;;;;;;;;7.67;66.90;100916.78;5306951;32;33773;-71
2023/04/08 09:49:06;;;;;;;;;;;;;;;7.93;65.14;100911.03;5319768;32;34864;-71
2023/04/08 09:52:23;;;;;;;;;;;;;;;6.97;69.45;100913.62;5314974;32;34005;-74
2023/04/08 09:55:26;;;;;;;;;;;;;;;7.11;70.24;100923.00;5327147;32;34187;-70
2023/04/08 09:58:28;;;;;;;;;;;;;;;7.06;70.38;100918.69;5308539;32;34290;-74
2023/04/08 10:01:38;;;;;;;;;;;;;;;7.93;64.62;100916.28;5304624;32;33614;-74
2023/04/08 10:04:41;;;;;;;;;;;;;;;8.85;60.46;100915.16;5317378;32;37247;-76
2023/04/08 10:07:43;;;;;;;;;;;;;;;7.11;65.96;100923.84;5312644;32;34019;-76
2023/04/08 10:10:45;;;;;;;;;;;;;;;7.60;66.16;100923.03;5313170;32;34190;-74
2023/04/08 10:13:48;;;;;;;;;;;;;;;7.09;69.39;100924.78;5311858;32;33336;-71
2023/04/08 10:16:50;;;;;;;;;;;;;;;7.00;69.02;100924.00;5307981;32;32926;-74
2023/04/08 10:19:53;;;;;;;;;;;;;;;7.28;68.04;100926.19;5307688;32;33162;-74
2023/04/08 10:22:55;;;;;;;;;;;;;;;7.50;67.15;100921.44;5315558;32;35576;-74
2023/04/08 10:25:57;;;;;;;;;;;;;;;7.24;69.15;100930.59;5341764;32;34167;-70
2023/04/08 10:29:28;;;;;;;;;;;;;;;6.95;67.08;100924.97;5308199;32;33780;-72
2023/04/08 10:32:30;;;;;;;;;;;;;;;7.63;67.15;100925.56;5291497;32;36524;-74
2023/04/08 10:35:34;;;;;;;;;;;;;;;7.52;66.77;100922.28;5327993;32;34204;-70
2023/04/08 10:38:36;;;;;;;;;;;;;;;7.76;64.36;100907.87;5322965;32;34157;-75
2023/04/08 10:41:42;;;;;;;;;;;;;;;7.53;63.98;100917.00;5324073;32;33757;-71
2023/04/08 10:44:45;;;;;;;;;;;;;;;7.97;60.46;100917.06;5297736;32;47079;-71
2023/04/08 10:47:47;;;;;;;;;;;;;;;7.55;63.83;100920.47;5311999;32;33674;-71
2023/04/08 10:50:58;;;;;;;;;;;;;;;8.47;59.96;100923.91;5319756;32;35611;-75
2023/04/08 10:54:10;;;;;;;;;;;;;;;7.17;64.91;100922.91;5324099;32;33818;-75
2023/04/08 10:57:12;;;;;;;;;;;;;;;6.94;67.06;100937.19;5336078;32;44638;-74
2023/04/08 11:00:18;;;;;;;;;;;;;;;8.17;63.79;100919.28;5328810;32;33586;-71
2023/04/08 11:03:19;;;;;;;;;;;;;;;7.70;66.74;100926.31;5332234;32;34146;-74
2023/04/08 11:06:23;;;;;;;;;;;;;;;7.37;67.73;100923.41;5299548;32;34392;-75
2023/04/08 11:09:25;;;;;;;;;;;;;;;8.07;65.17;100916.84;5325145;32;33766;-75
2023/04/08 11:12:27;;;;;;;;;;;;;;;8.12;64.12;100927.25;5337877;32;33144;-72
2023/04/08 11:15:29;;;;;;;;;;;;;;;7.51;67.27;100925.78;5315256;32;33599;-75
2023/04/08 11:18:33;;;;;;;;;;;;;;;8.03;64.83;100917.81;5315369;32;33723;-73
2023/04/08 11:21:36;;;;;;;;;;;;;;;8.61;63.86;100920.97;5308166;32;34752;-70
2023/04/08 11:24:38;;;;;;;;;;;;;;;8.38;62.62;100913.62;5306208;32;34089;-70
2023/04/08 11:27:40;;;;;;;;;;;;;;;8.68;62.37;100920.78;5302243;32;34037;-75
2023/04/08 11:30:42;;;;;;;;;;;;;;;8.69;60.61;100929.50;5275731;32;44732;-74
2023/04/08 11:33:47;;;;;;;;;;;;;;;9.25;58.93;100919.44;5332397;32;35111;-73
2023/04/08 11:36:50;;;;;;;;;;;;;;;8.63;61.35;100924.41;5326662;32;33247;-70
2023/04/08 11:39:53;;;;;;;;;;;;;;;8.82;60.42;100930.97;5340623;32;33124;-71
2023/04/08 11:42:55;;;;;;;;;;;;;;;7.97;64.05;100923.16;5323234;32;33591;-70
2023/04/08 11:45:57;;;;;;;;;;;;;;;8.54;62.30;100930.72;5334133;32;34393;-74
2023/04/08 11:49:06;;;;;;;;;;;;;;;7.71;63.83;100936.75;5332112;32;33397;-74
2023/04/08 11:52:08;;;;;;;;;;;;;;;8.40;61.58;100931.03;5300752;32;33818;-70
2023/04/08 11:55:11;;;;;;;;;;;;;;;8.01;63.11;100929.22;5337775;32;32801;-71
2023/04/08 11:58:13;;;;;;;;;;;;;;;8.95;60.36;100932.41;5321758;32;44778;-70
2023/04/08 12:01:15;;;;;;;;;;;;;;;8.26;62.66;100929.56;5341055;32;33390;-74
2023/04/08 12:04:17;;;;;;;;;;;;;;;9.33;58.06;100911.37;5293649;32;34253;-73
2023/04/08 12:07:19;;;;;;;;;;;;;;;8.78;59.76;100929.31;5308991;32;34614;-71
2023/04/08 12:10:21;;;;;;;;;;;;;;;8.40;59.47;100923.16;5306219;32;33788;-75
2023/04/08 12:13:23;;;;;;;;;;;;;;;8.26;61.91;100925.19;5308375;32;33624;-71
2023/04/08 12:16:28;;;;;;;;;;;;;;;8.67;60.28;100923.44;5323321;32;34571;-74
2023/04/08 12:19:30;;;;;;;;;;;;;;;8.57;61.85;100917.56;5295664;32;33800;-74
2023/04/08 12:22:34;;;;;;;;;;;;;;;7.81;66.20;100933.06;5324054;32;32963;-73
2023/04/08 12:25:36;;;;;;;;;;;;;;;7.15;65.04;100940.34;5298799;32;33721;-70
2023/04/08 12:28:38;;;;;;;;;;;;;;;9.05;56.65;100932.19;5308738;32;33560;-73
2023/04/08 12:31:40;;;;;;;;;;;;;;;9.17;56.58;100918.78;5301533;32;47565;-71
2023/04/08 12:34:42;;;;;;;;;;;;;;;9.08;57.24;100913.75;5323934;32;32975;-70
2023/04/08 12:37:44;;;;;;;;;;;;;;;8.57;60.85;100916.72;5337406;32;33296;-71
2023/04/08 12:40:46;;;;;;;;;;;;;;;8.96;58.68;100917.56;5295316;32;34416;-70
2023/04/08 12:43:51;;;;;;;;;;;;;;;9.22;57.62;100915.16;5307304;32;34050;-71
2023/04/08 12:46:53;;;;;;;;;;;;;;;9.13;60.28;100914.50;5311259;32;34535;-74
2023/04/08 12:49:55;;;;;;;;;;;;;;;10.01;57.31;100914.78;5308715;32;34002;-75
2023/04/08 12:52:57;;;;;;;;;;;;;;;9.64;58.21;100919.31;5332509;32;32979;-74
2023/04/08 12:55:59;;;;;;;;;;;;;;;9.73;57.45;100912.06;5328141;32;33717;-75
2023/04/08 12:59:01;;;;;;;;;;;;;;;10.57;53.32;100912.28;5329751;32;32797;-70
2023/04/08 13:02:03;;;;;;;;;;;;;;;10.15;54.88;100908.25;5306809;32;33727;-73
2023/04/08 13:05:05;;;;;;;;;;;;;;;10.10;56.00;100907.53;5318445;32;33345;-71
2023/04/08 13:08:07;;;;;;;;;;;;;;;10.36;51.71;100905.03;5292471;32;33951;-71
2023/04/08 13:11:09;;;;;;;;;;;;;;;8.98;57.70;100914.87;5309256;32;34516;-70
2023/04/08 13:14:12;;;;;;;;;;;;;;;8.81;59.18;100912.66;5308324;32;45027;-74
2023/04/08 13:17:14;;;;;;;;;;;;;;;8.83;59.76;100913.50;5305198;32;33614;-74
2023/04/08 13:20:16;;;;;;;;;;;;;;;8.91;57.74;100914.16;5321286;32;33617;-75
2023/04/08 13:23:18;;;;;;;;;;;;;;;9.02;57.92;100914.78;5308645;32;33001;-70
2023/04/08 13:26:21;;;;;;;;;;;;;;;8.72;59.86;100907.63;5320670;32;34324;-70
2023/04/08 13:29:22;;;;;;;;;;;;;;;9.90;56.61;100901.06;5300680;32;33063;-75
2023/04/08 13:32:24;;;;;;;;;;;;;;;7.68;63.54;100910.66;5296816;32;33883;-73
2023/04/08 13:35:26;;;;;;;;;;;;;;;9.03;61.01;100913.88;5337815;32;34205;-74
2023/04/08 13:38:28;;;;;;;;;;;;;;;9.43;58.11;100908.47;5321932;32;33353;-74
2023/04/08 13:41:30;;;;;;;;;;;;;;;9.98;55.62;100901.75;5340240;32;34128;-72
2023/04/08 13:44:32;;;;;;;;;;;;;;;8.94;56.82;100904.44;5321036;32;33565;-75
2023/04/08 13:47:34;;;;;;;;;;;;;;;9.53;55.61;100905.59;5334611;32;33398;-74
2023/04/08 13:50:40;;;;;;;;;;;;;;;8.13;60.32;100913.25;5322627;32;34607;-71
2023/04/08 13:53:42;;;;;;;;;;;;;;;8.86;56.72;100906.41;5308146;32;44667;-73
2023/04/08 13:56:44;;;;;;;;;;;;;;;9.18;57.19;100891.66;5309557;32;33620;-71
2023/04/08 13:59:46;;;;;;;;;;;;;;;9.25;58.10;100893.22;5309890;32;34387;-74
2023/04/08 14:02:49;;;;;;;;;;;;;;;10.09;54.33;100887.41;5319691;32;34810;-75
2023/04/08 14:05:52;;;;;;;;;;;;;;;10.05;54.80;100891.91;5306704;32;33721;-72
2023/04/08 14:08:54;;;;;;;;;;;;;;;8.59;58.33;100907.91;5319652;32;33801;-70
2023/04/08 14:11:57;;;;;;;;;;;;;;;8.98;59.31;100904.41;5316022;32;33946;-75
2023/04/08 14:14:59;;;;;;;;;;;;;;;9.00;58.69;100894.72;5310329;32;32990;-74
2023/04/08 14:18:01;;;;;;;;;;;;;;;8.58;60.70;100902.72;5323088;32;32975;-71
2023/04/08 14:21:04;;;;;;;;;;;;;;;9.64;57.30;100895.69;5296349;32;33104;-72
2023/04/08 14:24:06;;;;;;;;;;;;;;;8.95;59.72;100908.81;5332434;32;33701;-74
2023/04/08 14:27:08;;;;;;;;;;;;;;;9.41;58.78;100898.94;5326482;32;33313;-71
2023/04/08 14:30:10;;;;;;;;;;;;;;;9.13;61.26;100910.09;5315751;32;34265;-71
2023/04/08 14:33:12;;;;;;;;;;;;;;;9.33;59.71;100901.72;5318772;32;45228;-76
2023/04/08 14:36:14;;;;;;;;;;;;;;;8.61;60.31;100911.34;5308488;32;31950;-73
2023/04/08 14:39:16;;;;;;;;;;;;;;;9.03;59.39;100913.03;5323306;32;33654;-70
2023/04/08 14:42:18;;;;;;;;;;;;;;;8.80;60.44;100911.78;5296308;32;34619;-71
2023/04/08 14:45:20;;;;;;;;;;;;;;;9.84;57.61;100903.00;5321951;32;34452;-75
2023/04/08 14:48:25;;;;;;;;;;;;;;;9.14;58.62;100909.19;5309888;32;33063;-75
2023/04/08 14:51:27;;;;;;;;;;;;;;;7.85;61.73;100919.00;5318902;32;33803;-70
2023/04/08 14:54:29;;;;;;;;;;;;;;;9.61;55.81;100912.38;5311133;32;33437;-71
2023/04/08 14:57:31;;;;;;;;;;;;;;;9.30;54.92;100907.06;5294711;32;32387;-71
2023/04/08 15:00:33;;;;;;;;;;;;;;;9.61;54.01;100903.66;5320652;32;34282;-70
2023/04/08 15:03:35;;;;;;;;;;;;;;;9.63;54.13;100910.56;5292698;32;33285;-74
2023/04/08 15:06:39;;;;;;;;;;;;;;;9.30;54.50;100906.22;5326851;32;35870;-75
2023/04/08 15:09:41;;;;;;;;;;;;;;;9.60;53.31;100899.31;5324074;32;45190;-74
2023/04/08 15:12:43;;;;;;;;;;;;;;;9.97;52.85;100896.50;5333270;32;33130;-73
2023/04/08 15:15:45;;;;;;;;;;;;;;;9.13;55.58;100904.87;5336391;32;33882;-71
2023/04/08 15:18:47;;;;;;;;;;;;;;;9.94;52.95;100899.25;5313374;32;33704;-74
2023/04/08 15:21:49;;;;;;;;;;;;;;;10.14;52.67;100902.16;5320544;32;36421;-70
2023/04/08 15:24:51;;;;;;;;;;;;;;;9.56;54.25;100909.03;5309087;32;33200;-76
2023/04/08 15:27:53;;;;;;;;;;;;;;;9.26;54.53;100899.31;5309945;32;33633;-72
2023/04/08 15:30:55;;;;;;;;;;;;;;;9.65;54.09;100900.88;5277170;32;33828;-76
2023/04/08 15:33:57;;;;;;;;;;;;;;;9.61;54.27;100904.50;5326515;32;34838;-71
2023/04/08 15:37:01;;;;;;;;;;;;;;;10.00;52.52;100902.53;5336361;32;33906;-73
2023/04/08 15:40:03;;;;;;;;;;;;;;;8.50;58.49;100920.34;5306567;32;33678;-71
2023/04/08 15:43:08;;;;;;;;;;;;;;;9.49;54.82;100904.84;5322439;32;33277;-70
2023/04/08 15:46:10;;;;;;;;;;;;;;;9.05;56.85;100912.06;5308946;32;43527;-72
2023/04/08 15:49:12;;;;;;;;;;;;;;;9.65;55.79;100914.00;5309652;32;33351;-71